Flight Number: EUR1191 Duration: 3:00
Departure: Athens Int'l (LGAV) at 07:00 Distance: 1138 Nm
Arrival: Paris Charles-de-Gaulle (LFPG) at 10:00 Equipment: A330-200

Weather Information
Athens Eleftherios Venizelos International Airport, Greece (LGAV) 37-56N 023-56E Nov 18, 2017 - 06:20 AM EST / 2017.11.18 1120 UTC
Wind: from the ESE (120 degrees) at 6 MPH (5 KT):0
Visibility: greater than 7 mile(s):0
Sky conditions: partly cloudy Weather: Towering cumulus clouds observed Temperature: 60 F (16 C) Dew Point: 53 F (12 C) Relative Humidity: 77% Pressure (altimeter): 29.88 in. Hg (1012 hPa)
ob: LGAV 181120Z 12005KT 9999 FEW010 FEW020TCU SCT035 16/12 Q1012 NOSIG cycle: 11
Sunrise: 05:11 Sunset: 15:07 (UTC)

Paris-Aeroport Charles De Gaulle, France (LFPG) 49-01N 002-32E 109M Nov 18, 2017 - 06:30 AM EST / 2017.11.18 1130 UTC
Wind: from the SW (230 degrees) at 6 MPH (5 KT) (direction variable):0
Visibility: 3 mile(s):0
Sky conditions: mostly cloudy Temperature: 44 F (7 C) Dew Point: 42 F (6 C) Relative Humidity: 93% Pressure (altimeter): 30.27 in. Hg (1025 hPa)
ob: LFPG 181130Z 23005KT 180V280 6000 BKN038 07/06 Q1025 TEMPO BKN003 cycle: 11
Sunrise: 07:09 Sunset: 16:01 (UTC)

TAF:2017/11/18 12:21 TAF LFPG 181100Z 1812/1918 26008KT 8000 BKN035 BECMG 1822/1824 BKN012 PROB40 TEMPO 1900/1904 2500 -RA OVC007 BECMG 1905/1907 BKN020 BECMG 1908/1910 CAVOK TX08/1815Z TN05/1918Z

Previous Pireps for this route
Date Aircraft Flight time Fuel used Landing rate On time
2013-10-25A330-2003.00263100No
2016-10-24A330-20003.1439805-150No
(pireps marked green are flown by you)

Route map